sensor_id;sensor_type;location;lat;lon;timestamp;pressure;altitude;pressure_sealevel;temperature;humidity
29215;BME280;16252;49.816;7.964;2023-05-22T00:01:03;99625.94;;;20.39;50.33
29215;BME280;16252;49.816;7.964;2023-05-22T00:03:30;99628.00;;;20.37;50.82
29215;BME280;16252;49.816;7.964;2023-05-22T00:05:57;99620.78;;;20.29;50.74
29215;BME280;16252;49.816;7.964;2023-05-22T00:08:26;99644.56;;;20.42;50.87
29215;BME280;16252;49.816;7.964;2023-05-22T00:10:52;99638.88;;;20.37;50.90
29215;BME280;16252;49.816;7.964;2023-05-22T00:13:17;99640.53;;;20.38;51.14
29215;BME280;16252;49.816;7.964;2023-05-22T00:15:42;99611.88;;;20.20;51.03
29215;BME280;16252;49.816;7.964;2023-05-22T00:18:07;99615.09;;;20.24;50.98
29215;BME280;16252;49.816;7.964;2023-05-22T00:20:33;99624.53;;;20.28;51.03
29215;BME280;16252;49.816;7.964;2023-05-22T00:23:05;99614.59;;;20.20;51.14
29215;BME280;16252;49.816;7.964;2023-05-22T00:25:34;99614.16;;;20.17;51.27
29215;BME280;16252;49.816;7.964;2023-05-22T00:28:00;99633.91;;;20.25;51.18
29215;BME280;16252;49.816;7.964;2023-05-22T00:30:25;99616.03;;;20.16;51.46
29215;BME280;16252;49.816;7.964;2023-05-22T00:32:50;99638.22;;;20.20;51.32
29215;BME280;16252;49.816;7.964;2023-05-22T00:35:16;99587.13;;;19.94;51.15
29215;BME280;16252;49.816;7.964;2023-05-22T00:37:41;99613.97;;;20.03;51.21
29215;BME280;16252;49.816;7.964;2023-05-22T00:40:07;99626.53;;;20.04;50.89
29215;BME280;16252;49.816;7.964;2023-05-22T00:42:32;99628.78;;;20.01;51.04
29215;BME280;16252;49.816;7.964;2023-05-22T00:44:57;99605.16;;;19.86;51.05
29215;BME280;16252;49.816;7.964;2023-05-22T00:47:23;99604.72;;;19.83;50.58
29215;BME280;16252;49.816;7.964;2023-05-22T00:49:48;99611.91;;;19.76;50.68
29215;BME280;16252;49.816;7.964;2023-05-22T00:52:13;99635.03;;;19.86;50.97
29215;BME280;16252;49.816;7.964;2023-05-22T00:54:39;99621.44;;;19.72;50.76
29215;BME280;16252;49.816;7.964;2023-05-22T00:57:04;99627.59;;;19.65;51.14
29215;BME280;16252;49.816;7.964;2023-05-22T00:59:30;99638.44;;;19.65;50.90
29215;BME280;16252;49.816;7.964;2023-05-22T01:01:56;99626.06;;;19.48;50.88
29215;BME280;16252;49.816;7.964;2023-05-22T01:04:22;99610.88;;;19.39;51.68
29215;BME280;16252;49.816;7.964;2023-05-22T01:06:47;99628.28;;;19.44;51.53
29215;BME280;16252;49.816;7.964;2023-05-22T01:09:13;99621.06;;;19.37;51.91
29215;BME280;16252;49.816;7.964;2023-05-22T01:14:34;99593.34;;;19.26;51.57
29215;BME280;16252;49.816;7.964;2023-05-22T01:17:10;99624.81;;;19.36;51.59
29215;BME280;16252;49.816;7.964;2023-05-22T01:19:51;99639.13;;;19.44;51.75
29215;BME280;16252;49.816;7.964;2023-05-22T01:33:03;99612.25;;;19.20;51.69
29215;BME280;16252;49.816;7.964;2023-05-22T01:35:32;99619.34;;;19.21;52.07
29215;BME280;16252;49.816;7.964;2023-05-22T01:37:58;99625.13;;;19.18;51.84
29215;BME280;16252;49.816;7.964;2023-05-22T01:40:24;99631.41;;;19.18;51.82
29215;BME280;16252;49.816;7.964;2023-05-22T01:42:50;99623.69;;;19.07;52.02
29215;BME280;16252;49.816;7.964;2023-05-22T01:45:16;99634.84;;;19.12;52.22
29215;BME280;16252;49.816;7.964;2023-05-22T01:47:41;99626.88;;;19.11;52.03
29215;BME280;16252;49.816;7.964;2023-05-22T01:50:07;99634.00;;;19.12;51.96
29215;BME280;16252;49.816;7.964;2023-05-22T01:53:17;99628.50;;;19.20;51.51
29215;BME280;16252;49.816;7.964;2023-05-22T01:55:49;99612.34;;;19.03;52.24
29215;BME280;16252;49.816;7.964;2023-05-22T01:58:40;99637.50;;;19.20;51.99
29215;BME280;16252;49.816;7.964;2023-05-22T02:01:09;99627.63;;;19.04;51.96
29215;BME280;16252;49.816;7.964;2023-05-22T02:03:38;99512.41;;;18.31;52.17
29215;BME280;16252;49.816;7.964;2023-05-22T02:06:05;99640.97;;;19.06;52.10
29215;BME280;16252;49.816;7.964;2023-05-22T02:08:32;99615.88;;;18.89;52.04
29215;BME280;16252;49.816;7.964;2023-05-22T02:11:00;99641.72;;;19.00;52.23
29215;BME280;16252;49.816;7.964;2023-05-22T02:13:26;99625.75;;;18.82;52.23
29215;BME280;16252;49.816;7.964;2023-05-22T02:15:53;99644.66;;;18.90;52.40
29215;BME280;16252;49.816;7.964;2023-05-22T02:18:19;99625.78;;;18.74;52.49
29215;BME280;16252;49.816;7.964;2023-05-22T02:20:45;99608.69;;;18.65;52.37
29215;BME280;16252;49.816;7.964;2023-05-22T02:23:10;99632.88;;;18.75;52.67
29215;BME280;16252;49.816;7.964;2023-05-22T02:25:35;99603.81;;;18.60;52.73
29215;BME280;16252;49.816;7.964;2023-05-22T02:28:01;99636.44;;;18.75;52.49
29215;BME280;16252;49.816;7.964;2023-05-22T02:30:26;99627.31;;;18.68;52.81
29215;BME280;16252;49.816;7.964;2023-05-22T02:32:51;99637.13;;;18.77;52.40
29215;BME280;16252;49.816;7.964;2023-05-22T02:35:17;99624.78;;;18.67;52.94
29215;BME280;16252;49.816;7.964;2023-05-22T02:37:42;99636.09;;;18.70;52.46
29215;BME280;16252;49.816;7.964;2023-05-22T02:40:07;99636.09;;;18.70;52.83
29215;BME280;16252;49.816;7.964;2023-05-22T02:42:34;99633.41;;;18.70;52.72
29215;BME280;16252;49.816;7.964;2023-05-22T02:44:59;99618.38;;;18.59;52.65
29215;BME280;16252;49.816;7.964;2023-05-22T02:47:25;99624.84;;;18.58;52.42
29215;BME280;16252;49.816;7.964;2023-05-22T02:49:50;99621.09;;;18.59;52.41
29215;BME280;16252;49.816;7.964;2023-05-22T02:52:15;99622.97;;;18.59;52.53
29215;BME280;16252;49.816;7.964;2023-05-22T02:54:41;99597.88;;;18.34;52.51
29215;BME280;16252;49.816;7.964;2023-05-22T02:57:06;99623.88;;;18.43;52.63
29215;BME280;16252;49.816;7.964;2023-05-22T02:59:31;99613.81;;;18.29;52.76
29215;BME280;16252;49.816;7.964;2023-05-22T03:01:57;99639.28;;;18.42;52.77
29215;BME280;16252;49.816;7.964;2023-05-22T03:04:22;99628.34;;;18.36;53.10
29215;BME280;16252;49.816;7.964;2023-05-22T03:06:48;99615.53;;;18.22;52.99
29215;BME280;16252;49.816;7.964;2023-05-22T03:09:13;99577.56;;;17.98;53.22
29215;BME280;16252;49.816;7.964;2023-05-22T03:11:40;99619.06;;;18.22;53.36
29215;BME280;16252;49.816;7.964;2023-05-22T03:14:05;99612.66;;;18.15;53.51
29215;BME280;16252;49.816;7.964;2023-05-22T03:16:30;99615.22;;;18.16;53.41
29215;BME280;16252;49.816;7.964;2023-05-22T03:19:09;99630.19;;;18.35;53.48
29215;BME280;16252;49.816;7.964;2023-05-22T03:21:35;99621.13;;;18.20;53.67
29215;BME280;16252;49.816;7.964;2023-05-22T03:24:01;99614.53;;;18.14;53.64
29215;BME280;16252;49.816;7.964;2023-05-22T03:26:26;99614.19;;;18.17;54.06
29215;BME280;16252;49.816;7.964;2023-05-22T03:28:55;99610.63;;;18.17;53.67
29215;BME280;16252;49.816;7.964;2023-05-22T03:31:21;99626.38;;;18.22;53.78
29215;BME280;16252;49.816;7.964;2023-05-22T03:33:47;99610.84;;;18.15;53.73
29215;BME280;16252;49.816;7.964;2023-05-22T03:36:12;99614.06;;;18.11;53.98
29215;BME280;16252;49.816;7.964;2023-05-22T03:38:37;99609.31;;;18.05;53.76
29215;BME280;16252;49.816;7.964;2023-05-22T03:41:02;99612.88;;;18.05;54.05
29215;BME280;16252;49.816;7.964;2023-05-22T03:43:28;99607.50;;;17.97;54.22
29215;BME280;16252;49.816;7.964;2023-05-22T03:45:53;99605.16;;;17.94;54.23
29215;BME280;16252;49.816;7.964;2023-05-22T03:48:19;99626.97;;;18.01;54.10
29215;BME280;16252;49.816;7.964;2023-05-22T03:50:44;99617.66;;;17.95;54.29
29215;BME280;16252;49.816;7.964;2023-05-22T03:53:10;99602.28;;;17.87;54.18
29215;BME280;16252;49.816;7.964;2023-05-22T03:55:35;99617.66;;;17.95;54.00
29215;BME280;16252;49.816;7.964;2023-05-22T03:58:00;99619.50;;;17.94;54.41
29215;BME280;16252;49.816;7.964;2023-05-22T04:00:25;99617.66;;;17.95;53.87
29215;BME280;16252;49.816;7.964;2023-05-22T04:02:51;99625.59;;;17.96;53.99
29215;BME280;16252;49.816;7.964;2023-05-22T04:05:16;99609.22;;;17.90;54.45
29215;BME280;16252;49.816;7.964;2023-05-22T04:07:41;99614.63;;;17.90;54.48
29215;BME280;16252;49.816;7.964;2023-05-22T04:10:07;99600.59;;;17.86;54.36
29215;BME280;16252;49.816;7.964;2023-05-22T04:12:32;99626.09;;;18.00;54.11
29215;BME280;16252;49.816;7.964;2023-05-22T04:14:58;99619.00;;;17.99;54.07
29215;BME280;16252;49.816;7.964;2023-05-22T04:17:25;99618.19;;;17.90;54.23
29215;BME280;16252;49.816;7.964;2023-05-22T04:19:50;99642.84;;;18.04;54.47
29215;BME280;16252;49.816;7.964;2023-05-22T04:22:15;99628.66;;;17.93;54.52
29215;BME280;16252;49.816;7.964;2023-05-22T04:24:41;99620.38;;;17.87;54.42
29215;BME280;16252;49.816;7.964;2023-05-22T04:27:06;99620.38;;;17.87;54.38
29215;BME280;16252;49.816;7.964;2023-05-22T04:29:32;99630.22;;;17.88;54.55
29215;BME280;16252;49.816;7.964;2023-05-22T04:32:00;99609.72;;;17.77;54.90
29215;BME280;16252;49.816;7.964;2023-05-22T04:34:25;99623.59;;;17.82;54.81
29215;BME280;16252;49.816;7.964;2023-05-22T04:36:50;99630.84;;;17.90;54.77
29215;BME280;16252;49.816;7.964;2023-05-22T04:39:16;99630.03;;;17.89;55.31
29215;BME280;16252;49.816;7.964;2023-05-22T04:41:41;99651.31;;;18.01;55.21
29215;BME280;16252;49.816;7.964;2023-05-22T04:44:07;99642.88;;;17.95;55.03
29215;BME280;16252;49.816;7.964;2023-05-22T04:46:32;99646.75;;;18.01;55.26
29215;BME280;16252;49.816;7.964;2023-05-22T04:49:00;99649.09;;;18.04;55.63
29215;BME280;16252;49.816;7.964;2023-05-22T04:51:27;99653.66;;;18.04;55.23
29215;BME280;16252;49.816;7.964;2023-05-22T04:53:53;99638.97;;;17.98;55.28
29215;BME280;16252;49.816;7.964;2023-05-22T04:56:20;99651.97;;;18.11;55.48
29215;BME280;16252;49.816;7.964;2023-05-22T04:58:47;99649.41;;;18.09;55.49
29215;BME280;16252;49.816;7.964;2023-05-22T05:01:14;99661.56;;;18.22;55.59
29215;BME280;16252;49.816;7.964;2023-05-22T05:03:40;99647.88;;;18.23;56.03
29215;BME280;16252;49.816;7.964;2023-05-22T05:06:06;99657.97;;;18.29;55.93
29215;BME280;16252;49.816;7.964;2023-05-22T05:08:32;99656.78;;;18.32;56.01
29215;BME280;16252;49.816;7.964;2023-05-22T05:10:57;99651.38;;;18.32;55.98
29215;BME280;16252;49.816;7.964;2023-05-22T05:13:25;99633.78;;;18.28;56.15
29215;BME280;16252;49.816;7.964;2023-05-22T05:15:50;99664.50;;;18.51;56.54
29215;BME280;16252;49.816;7.964;2023-05-22T05:18:16;99671.38;;;18.62;56.24
29215;BME280;16252;49.816;7.964;2023-05-22T05:20:41;99651.06;;;18.58;56.22
29215;BME280;16252;49.816;7.964;2023-05-22T05:23:07;99656.94;;;18.70;56.49
29215;BME280;16252;49.816;7.964;2023-05-22T05:25:34;99622.84;;;18.52;56.72
29215;BME280;16252;49.816;7.964;2023-05-22T05:28:02;99649.81;;;18.77;56.51
29215;BME280;16252;49.816;7.964;2023-05-22T05:30:29;99663.16;;;18.87;56.55
29215;BME280;16252;49.816;7.964;2023-05-22T05:32:55;99662.06;;;18.96;56.56
29215;BME280;16252;49.816;7.964;2023-05-22T05:35:21;99663.75;;;18.97;56.54
29215;BME280;16252;49.816;7.964;2023-05-22T05:37:46;99660.69;;;19.00;56.75
29215;BME280;16252;49.816;7.964;2023-05-22T05:40:14;99583.00;;;18.61;56.88
29215;BME280;16252;49.816;7.964;2023-05-22T05:42:48;99519.56;;;18.24;56.71
29215;BME280;16252;49.816;7.964;2023-05-22T05:45:13;99618.09;;;18.86;56.78
29215;BME280;16252;49.816;7.964;2023-05-22T05:47:39;99579.03;;;18.72;56.71
29215;BME280;16252;49.816;7.964;2023-05-22T05:50:05;99600.97;;;18.85;56.82
29215;BME280;16252;49.816;7.964;2023-05-22T05:52:31;99678.31;;;19.42;56.81
29215;BME280;16252;49.816;7.964;2023-05-22T05:54:58;99684.34;;;19.52;57.22
29215;BME280;16252;49.816;7.964;2023-05-22T05:57:25;99668.44;;;19.49;57.17
29215;BME280;16252;49.816;7.964;2023-05-22T05:59:50;99671.72;;;19.59;57.28
29215;BME280;16252;49.816;7.964;2023-05-22T06:02:16;99665.47;;;19.59;57.11
29215;BME280;16252;49.816;7.964;2023-05-22T06:04:41;99673.00;;;19.72;57.65
29215;BME280;16252;49.816;7.964;2023-05-22T06:07:06;99637.03;;;19.55;57.48
29215;BME280;16252;49.816;7.964;2023-05-22T06:09:32;99670.03;;;19.81;57.41
29215;BME280;16252;49.816;7.964;2023-05-22T06:11:57;99656.84;;;19.78;57.17
29215;BME280;16252;49.816;7.964;2023-05-22T06:14:22;99642.22;;;19.79;57.10
29215;BME280;16252;49.816;7.964;2023-05-22T06:16:47;99682.53;;;20.05;56.97
29215;BME280;16252;49.816;7.964;2023-05-22T06:19:13;99690.03;;;20.18;56.89
29215;BME280;16252;49.816;7.964;2023-05-22T06:21:39;99637.00;;;19.92;57.17
29215;BME280;16252;49.816;7.964;2023-05-22T06:24:04;99690.94;;;20.25;56.93
29215;BME280;16252;49.816;7.964;2023-05-22T06:26:30;99693.00;;;20.38;56.89
29215;BME280;16252;49.816;7.964;2023-05-22T06:28:55;99689.53;;;20.44;57.09
29215;BME280;16252;49.816;7.964;2023-05-22T06:31:21;99682.50;;;20.50;57.52
29215;BME280;16252;49.816;7.964;2023-05-22T06:33:46;99698.84;;;20.65;57.22
29215;BME280;16252;49.816;7.964;2023-05-22T06:36:12;99661.59;;;20.50;57.56
29215;BME280;16252;49.816;7.964;2023-05-22T06:38:37;99693.56;;;20.78;57.13
29215;BME280;16252;49.816;7.964;2023-05-22T06:41:03;99681.84;;;20.77;57.36
29215;BME280;16252;49.816;7.964;2023-05-22T06:43:29;99667.19;;;20.78;57.52
29215;BME280;16252;49.816;7.964;2023-05-22T06:45:55;99651.28;;;20.75;57.38
29215;BME280;16252;49.816;7.964;2023-05-22T06:48:20;99649.56;;;20.89;56.88
29215;BME280;16252;49.816;7.964;2023-05-22T06:50:45;99695.50;;;21.20;56.95
29215;BME280;16252;49.816;7.964;2023-05-22T06:53:10;99649.50;;;21.04;56.93
29215;BME280;16252;49.816;7.964;2023-05-22T06:55:36;99672.19;;;21.33;56.92
29215;BME280;16252;49.816;7.964;2023-05-22T06:58:01;99657.53;;;21.34;57.08
29215;BME280;16252;49.816;7.964;2023-05-22T07:00:26;99679.56;;;21.60;57.13
29215;BME280;16252;49.816;7.964;2023-05-22T07:02:51;99686.34;;;21.71;57.06
29215;BME280;16252;49.816;7.964;2023-05-22T07:05:17;99591.97;;;21.29;56.80
29215;BME280;16252;49.816;7.964;2023-05-22T07:07:43;99686.59;;;22.04;56.95
29215;BME280;16252;49.816;7.964;2023-05-22T07:10:09;99709.88;;;22.35;56.64
29215;BME280;16252;49.816;7.964;2023-05-22T07:12:34;99705.13;;;22.50;56.58
29215;BME280;16252;49.816;7.964;2023-05-22T07:15:00;99684.25;;;22.64;56.26
29215;BME280;16252;49.816;7.964;2023-05-22T07:17:25;99649.81;;;22.63;56.04
29215;BME280;16252;49.816;7.964;2023-05-22T07:19:51;99662.50;;;22.91;55.64
29215;BME280;16252;49.816;7.964;2023-05-22T07:22:16;99685.31;;;23.25;55.36
29215;BME280;16252;49.816;7.964;2023-05-22T07:24:42;99702.34;;;23.53;54.83
29215;BME280;16252;49.816;7.964;2023-05-22T07:27:07;99712.69;;;23.78;54.69
29215;BME280;16252;49.816;7.964;2023-05-22T07:29:33;99679.69;;;23.79;54.51
29215;BME280;16252;49.816;7.964;2023-05-22T07:31:58;99614.75;;;23.68;54.50
29215;BME280;16252;49.816;7.964;2023-05-22T07:34:24;99690.72;;;24.51;54.75
29215;BME280;16252;49.816;7.964;2023-05-22T07:36:56;99669.53;;;24.85;54.13
29215;BME280;16252;49.816;7.964;2023-05-22T07:39:21;99677.47;;;25.32;53.65
29215;BME280;16252;49.816;7.964;2023-05-22T07:41:47;99715.56;;;25.97;52.68
29215;BME280;16252;49.816;7.964;2023-05-22T07:44:16;99707.34;;;26.40;51.67
29215;BME280;16252;49.816;7.964;2023-05-22T07:46:42;99683.53;;;26.59;50.99
29215;BME280;16252;49.816;7.964;2023-05-22T07:49:07;99676.59;;;27.05;50.44
29215;BME280;16252;49.816;7.964;2023-05-22T07:51:32;99707.69;;;27.59;50.03
29215;BME280;16252;49.816;7.964;2023-05-22T07:53:58;99694.41;;;27.86;49.34
29215;BME280;16252;49.816;7.964;2023-05-22T07:56:23;99661.75;;;28.02;48.80
29215;BME280;16252;49.816;7.964;2023-05-22T07:58:50;99708.47;;;28.61;47.92
29215;BME280;16252;49.816;7.964;2023-05-22T08:01:15;99678.63;;;28.81;47.13
29215;BME280;16252;49.816;7.964;2023-05-22T08:03:41;99697.41;;;29.25;47.14
29215;BME280;16252;49.816;7.964;2023-05-22T08:06:06;99674.22;;;29.37;46.32
29215;BME280;16252;49.816;7.964;2023-05-22T08:08:32;99681.50;;;29.77;45.61
29215;BME280;16252;49.816;7.964;2023-05-22T08:10:57;99658.84;;;29.92;45.16
29215;BME280;16252;49.816;7.964;2023-05-22T08:13:23;99696.66;;;30.48;44.58
29215;BME280;16252;49.816;7.964;2023-05-22T08:15:48;99679.75;;;30.66;44.10
29215;BME280;16252;49.816;7.964;2023-05-22T08:18:14;99642.09;;;30.77;43.67
29215;BME280;16252;49.816;7.964;2023-05-22T08:20:39;99679.63;;;31.27;42.94
29215;BME280;16252;49.816;7.964;2023-05-22T08:23:04;99688.03;;;31.64;42.28
29215;BME280;16252;49.816;7.964;2023-05-22T08:25:30;99690.19;;;31.89;42.08
29215;BME280;16252;49.816;7.964;2023-05-22T08:27:55;99700.38;;;32.16;41.17
29215;BME280;16252;49.816;7.964;2023-05-22T08:30:20;99688.56;;;32.36;41.02
29215;BME280;16252;49.816;7.964;2023-05-22T08:32:45;99698.69;;;32.63;41.39
29215;BME280;16252;49.816;7.964;2023-05-22T08:35:11;99705.78;;;33.01;40.13
29215;BME280;16252;49.816;7.964;2023-05-22T08:37:36;99694.19;;;33.14;38.89
29215;BME280;16252;49.816;7.964;2023-05-22T08:40:01;99681.19;;;33.25;38.41
29215;BME280;16252;49.816;7.964;2023-05-22T08:42:27;99710.38;;;33.63;38.24
29215;BME280;16252;49.816;7.964;2023-05-22T08:44:52;99688.19;;;33.74;37.42
29215;BME280;16252;49.816;7.964;2023-05-22T08:47:20;99700.66;;;33.92;37.03
29215;BME280;16252;49.816;7.964;2023-05-22T08:49:48;99686.50;;;33.83;36.86
29215;BME280;16252;49.816;7.964;2023-05-22T08:52:26;99693.72;;;33.94;37.22
29215;BME280;16252;49.816;7.964;2023-05-22T08:54:54;99705.94;;;33.98;36.68
29215;BME280;16252;49.816;7.964;2023-05-22T08:57:21;99699.28;;;33.94;35.91
29215;BME280;16252;49.816;7.964;2023-05-22T08:59:47;99707.03;;;33.87;35.28
29215;BME280;16252;49.816;7.964;2023-05-22T09:02:15;99676.28;;;33.63;35.78
29215;BME280;16252;49.816;7.964;2023-05-22T09:04:41;99695.69;;;33.63;35.62
29215;BME280;16252;49.816;7.964;2023-05-22T09:07:06;99718.41;;;33.65;35.82
29215;BME280;16252;49.816;7.964;2023-05-22T09:09:37;99686.19;;;33.33;36.25
29215;BME280;16252;49.816;7.964;2023-05-22T09:12:05;99705.88;;;33.32;35.93
29215;BME280;16252;49.816;7.964;2023-05-22T09:14:37;99717.50;;;33.29;35.73
29215;BME280;16252;49.816;7.964;2023-05-22T09:17:04;99711.31;;;33.01;35.51
29215;BME280;16252;49.816;7.964;2023-05-22T09:19:29;99701.53;;;32.78;35.41
29215;BME280;16252;49.816;7.964;2023-05-22T09:22:00;99717.84;;;32.69;36.10
29215;BME280;16252;49.816;7.964;2023-05-22T09:24:26;99706.56;;;32.38;36.41
29215;BME280;16252;49.816;7.964;2023-05-22T09:26:52;99701.47;;;32.20;36.65
29215;BME280;16252;49.816;7.964;2023-05-22T09:29:17;99685.91;;;32.04;36.75
29215;BME280;16252;49.816;7.964;2023-05-22T09:31:43;99716.72;;;32.23;36.95
29215;BME280;16252;49.816;7.964;2023-05-22T09:34:09;99686.47;;;32.06;37.01
29215;BME280;16252;49.816;7.964;2023-05-22T09:36:35;99700.88;;;32.13;36.85
29215;BME280;16252;49.816;7.964;2023-05-22T09:39:02;99708.66;;;32.16;36.76
29215;BME280;16252;49.816;7.964;2023-05-22T09:41:28;99711.16;;;32.17;37.08
29215;BME280;16252;49.816;7.964;2023-05-22T09:43:56;99702.25;;;32.10;37.11
29215;BME280;16252;49.816;7.964;2023-05-22T09:46:21;99711.13;;;32.12;36.67
29215;BME280;16252;49.816;7.964;2023-05-22T09:48:53;99705.88;;;32.11;37.08
29215;BME280;16252;49.816;7.964;2023-05-22T09:51:21;99707.59;;;32.22;36.88
29215;BME280;16252;49.816;7.964;2023-05-22T09:53:51;99688.75;;;32.19;37.28
29215;BME280;16252;49.816;7.964;2023-05-22T09:56:20;99699.97;;;32.45;37.36
29215;BME280;16252;49.816;7.964;2023-05-22T09:58:48;99697.38;;;32.80;37.23
29215;BME280;16252;49.816;7.964;2023-05-22T10:01:17;99652.28;;;32.95;36.87
29215;BME280;16252;49.816;7.964;2023-05-22T10:03:44;99701.50;;;33.66;36.82
29215;BME280;16252;49.816;7.964;2023-05-22T10:06:12;99692.59;;;33.95;36.30
29215;BME280;16252;49.816;7.964;2023-05-22T10:08:42;99702.00;;;34.35;35.43
29215;BME280;16252;49.816;7.964;2023-05-22T10:11:08;99694.16;;;34.63;35.01
29215;BME280;16252;49.816;7.964;2023-05-22T10:13:35;99696.72;;;35.14;34.73
29215;BME280;16252;49.816;7.964;2023-05-22T10:16:01;99696.13;;;35.62;34.89
29215;BME280;16252;49.816;7.964;2023-05-22T10:18:29;99684.31;;;36.09;34.05
29215;BME280;16252;49.816;7.964;2023-05-22T10:20:56;99684.78;;;36.70;33.81
29215;BME280;16252;49.816;7.964;2023-05-22T10:23:22;99686.13;;;37.34;32.92
29215;BME280;16252;49.816;7.964;2023-05-22T10:25:49;99662.63;;;37.73;32.53
29215;BME280;16252;49.816;7.964;2023-05-22T10:28:24;99680.56;;;38.46;32.94
29215;BME280;16252;49.816;7.964;2023-05-22T10:31:02;99655.78;;;38.81;31.27
29215;BME280;16252;49.816;7.964;2023-05-22T10:33:41;99679.16;;;39.49;31.70
29215;BME280;16252;49.816;7.964;2023-05-22T10:41:23;99648.84;;;40.76;29.32
29215;BME280;16252;49.816;7.964;2023-05-22T10:43:50;99675.16;;;41.24;28.23
29215;BME280;16252;49.816;7.964;2023-05-22T10:46:16;99659.16;;;41.33;27.27
29215;BME280;16252;49.816;7.964;2023-05-22T10:48:46;99633.41;;;41.13;26.38
29215;BME280;16252;49.816;7.964;2023-05-22T10:51:13;99638.81;;;40.92;27.20
29215;BME280;16252;49.816;7.964;2023-05-22T10:53:41;99667.50;;;40.81;26.99
29215;BME280;16252;49.816;7.964;2023-05-22T10:56:14;99659.31;;;40.44;27.16
29215;BME280;16252;49.816;7.964;2023-05-22T10:58:43;99633.97;;;39.87;26.99
29215;BME280;16252;49.816;7.964;2023-05-22T11:06:40;99656.63;;;38.81;28.49
29215;BME280;16252;49.816;7.964;2023-05-22T11:11:45;99639.31;;;37.97;28.61
29215;BME280;16252;49.816;7.964;2023-05-22T11:14:11;99592.09;;;37.35;28.89
29215;BME280;16252;49.816;7.964;2023-05-22T11:16:40;99635.81;;;37.39;28.20
29215;BME280;16252;49.816;7.964;2023-05-22T11:19:06;99630.03;;;37.17;28.57
29215;BME280;16252;49.816;7.964;2023-05-22T11:21:45;99643.03;;;37.07;29.32
29215;BME280;16252;49.816;7.964;2023-05-22T11:24:12;99605.94;;;36.69;28.92
29215;BME280;16252;49.816;7.964;2023-05-22T11:26:42;99608.81;;;36.59;29.57
29215;BME280;16252;49.816;7.964;2023-05-22T11:29:08;99635.63;;;36.55;29.04
29215;BME280;16252;49.816;7.964;2023-05-22T11:31:35;99619.22;;;36.29;29.41
29215;BME280;16252;49.816;7.964;2023-05-22T11:34:03;99605.78;;;36.12;29.38
29215;BME280;16252;49.816;7.964;2023-05-22T11:36:28;99584.34;;;35.84;29.91
29215;BME280;16252;49.816;7.964;2023-05-22T11:38:57;99621.47;;;35.98;29.87
29215;BME280;16252;49.816;7.964;2023-05-22T11:41:24;99626.09;;;35.84;29.62
29215;BME280;16252;49.816;7.964;2023-05-22T11:43:53;99608.47;;;35.64;29.55
29215;BME280;16252;49.816;7.964;2023-05-22T11:46:18;99615.16;;;35.63;29.73
29215;BME280;16252;49.816;7.964;2023-05-22T11:48:44;99611.91;;;35.51;30.05
29215;BME280;16252;49.816;7.964;2023-05-22T11:51:09;99619.16;;;35.47;29.93
29215;BME280;16252;49.816;7.964;2023-05-22T11:53:35;99598.19;;;35.30;30.45
29215;BME280;16252;49.816;7.964;2023-05-22T11:56:04;99613.41;;;35.38;30.60
29215;BME280;16252;49.816;7.964;2023-05-22T11:58:30;99591.88;;;35.14;30.30
29215;BME280;16252;49.816;7.964;2023-05-22T12:01:02;99582.50;;;35.10;30.33
29215;BME280;16252;49.816;7.964;2023-05-22T12:03:28;99588.91;;;35.01;30.44
29215;BME280;16252;49.816;7.964;2023-05-22T12:05:55;99600.59;;;35.03;30.26
29215;BME280;16252;49.816;7.964;2023-05-22T12:08:22;99598.16;;;34.91;30.28
29215;BME280;16252;49.816;7.964;2023-05-22T12:10:52;99603.44;;;34.92;30.50
29215;BME280;16252;49.816;7.964;2023-05-22T12:15:49;99585.56;;;34.59;30.61
29215;BME280;16252;49.816;7.964;2023-05-22T12:18:17;99595.00;;;34.58;31.03
29215;BME280;16252;49.816;7.964;2023-05-22T12:20:42;99588.66;;;34.47;31.28
29215;BME280;16252;49.816;7.964;2023-05-22T12:23:19;99591.44;;;34.47;31.20
29215;BME280;16252;49.816;7.964;2023-05-22T12:25:44;99580.41;;;34.27;31.19
29215;BME280;16252;49.816;7.964;2023-05-22T12:28:10;99570.16;;;34.22;31.06
29215;BME280;16252;49.816;7.964;2023-05-22T12:30:39;99582.38;;;34.26;31.28
29215;BME280;16252;49.816;7.964;2023-05-22T12:33:11;99590.16;;;34.24;31.22
29215;BME280;16252;49.816;7.964;2023-05-22T12:35:37;99576.31;;;34.04;31.25
29215;BME280;16252;49.816;7.964;2023-05-22T12:38:02;99584.66;;;33.94;31.48
29215;BME280;16252;49.816;7.964;2023-05-22T12:40:27;99583.31;;;33.81;31.13
29215;BME280;16252;49.816;7.964;2023-05-22T12:42:53;99605.53;;;33.76;31.33
29215;BME280;16252;49.816;7.964;2023-05-22T12:45:18;99591.91;;;33.54;31.08
29215;BME280;16252;49.816;7.964;2023-05-22T12:47:43;99578.34;;;33.37;31.29
29215;BME280;16252;49.816;7.964;2023-05-22T12:50:09;99559.50;;;33.13;31.62
29215;BME280;16252;49.816;7.964;2023-05-22T12:52:34;99601.63;;;33.26;32.04
29215;BME280;16252;49.816;7.964;2023-05-22T12:55:00;99600.25;;;33.08;31.84
29215;BME280;16252;49.816;7.964;2023-05-22T12:57:25;99578.03;;;32.87;31.67
29215;BME280;16252;49.816;7.964;2023-05-22T12:59:50;99600.16;;;32.82;32.53
29215;BME280;16252;49.816;7.964;2023-05-22T13:02:16;99607.34;;;32.78;32.98
29215;BME280;16252;49.816;7.964;2023-05-22T13:04:41;99603.72;;;32.57;33.09
29215;BME280;16252;49.816;7.964;2023-05-22T13:07:07;99595.31;;;32.42;33.51
29215;BME280;16252;49.816;7.964;2023-05-22T13:09:32;99598.88;;;32.32;33.94
29215;BME280;16252;49.816;7.964;2023-05-22T13:11:57;99594.69;;;32.24;34.04
29215;BME280;16252;49.816;7.964;2023-05-22T13:14:23;99559.03;;;31.90;34.51
29215;BME280;16252;49.816;7.964;2023-05-22T13:16:49;99596.53;;;32.03;35.61
29215;BME280;16252;49.816;7.964;2023-05-22T13:19:14;99576.97;;;31.78;35.47
29215;BME280;16252;49.816;7.964;2023-05-22T13:21:41;99597.13;;;31.73;36.36
29215;BME280;16252;49.816;7.964;2023-05-22T13:24:07;99600.91;;;31.62;36.76
29215;BME280;16252;49.816;7.964;2023-05-22T13:26:32;99579.19;;;31.38;37.43